sensor_id;sensor_type;location;lat;lon;timestamp;pressure;altitude;pressure_sealevel;temperature;humidity
28626;BME280;18905;42.668;23.364;2023-05-22T00:01:06;94864.09;;;14.93;100.00
28626;BME280;18905;42.668;23.364;2023-05-22T00:03:32;94857.34;;;14.87;100.00
28626;BME280;18905;42.668;23.364;2023-05-22T00:05:57;94861.56;;;15.00;100.00
28626;BME280;18905;42.668;23.364;2023-05-22T00:08:27;94850.88;;;15.07;100.00
28626;BME280;18905;42.668;23.364;2023-05-22T00:10:53;94854.63;;;15.03;100.00
28626;BME280;18905;42.668;23.364;2023-05-22T00:13:19;94842.97;;;15.02;100.00
28626;BME280;18905;42.668;23.364;2023-05-22T00:15:44;94845.06;;;15.09;100.00
28626;BME280;18905;42.668;23.364;2023-05-22T00:18:10;94857.50;;;15.25;100.00
28626;BME280;18905;42.668;23.364;2023-05-22T00:20:38;94837.53;;;15.18;100.00
28626;BME280;18905;42.668;23.364;2023-05-22T00:23:05;94851.09;;;15.33;100.00
28626;BME280;18905;42.668;23.364;2023-05-22T00:25:34;94860.19;;;15.37;100.00
28626;BME280;18905;42.668;23.364;2023-05-22T00:28:00;94852.00;;;15.37;100.00
28626;BME280;18905;42.668;23.364;2023-05-22T00:30:25;94858.84;;;15.31;100.00
28626;BME280;18905;42.668;23.364;2023-05-22T00:32:50;94858.38;;;15.29;100.00
28626;BME280;18905;42.668;23.364;2023-05-22T00:35:16;94863.25;;;15.36;100.00
28626;BME280;18905;42.668;23.364;2023-05-22T00:37:41;94847.34;;;15.22;100.00
28626;BME280;18905;42.668;23.364;2023-05-22T00:40:09;94858.78;;;15.28;100.00
28626;BME280;18905;42.668;23.364;2023-05-22T00:42:34;94858.38;;;15.29;100.00
28626;BME280;18905;42.668;23.364;2023-05-22T00:45:00;94864.97;;;15.13;100.00
28626;BME280;18905;42.668;23.364;2023-05-22T00:47:25;94854.63;;;15.18;100.00
28626;BME280;18905;42.668;23.364;2023-05-22T00:49:51;94853.34;;;15.12;100.00
28626;BME280;18905;42.668;23.364;2023-05-22T00:52:18;94853.16;;;15.21;100.00
28626;BME280;18905;42.668;23.364;2023-05-22T00:54:44;94849.63;;;15.20;100.00
28626;BME280;18905;42.668;23.364;2023-05-22T00:57:10;94849.19;;;15.18;100.00
28626;BME280;18905;42.668;23.364;2023-05-22T00:59:35;94848.22;;;15.26;100.00
28626;BME280;18905;42.668;23.364;2023-05-22T01:02:01;94834.19;;;14.93;100.00
28626;BME280;18905;42.668;23.364;2023-05-22T01:04:27;94852.53;;;14.96;100.00
28626;BME280;18905;42.668;23.364;2023-05-22T01:06:57;94850.06;;;15.07;100.00
28626;BME280;18905;42.668;23.364;2023-05-22T01:09:23;94836.28;;;15.15;100.00
28626;BME280;18905;42.668;23.364;2023-05-22T01:11:59;94857.44;;;15.06;100.00
28626;BME280;18905;42.668;23.364;2023-05-22T01:19:55;94852.97;;;15.14;100.00
28626;BME280;18905;42.668;23.364;2023-05-22T01:22:59;94849.63;;;15.20;100.00
28626;BME280;18905;42.668;23.364;2023-05-22T01:26:02;94855.78;;;15.17;100.00
28626;BME280;18905;42.668;23.364;2023-05-22T01:31:30;94835.88;;;15.13;100.00
28626;BME280;18905;42.668;23.364;2023-05-22T01:33:58;94839.19;;;15.22;100.00
28626;BME280;18905;42.668;23.364;2023-05-22T01:36:28;94842.06;;;15.14;100.00
28626;BME280;18905;42.668;23.364;2023-05-22T01:38:55;94838.31;;;15.18;100.00
28626;BME280;18905;42.668;23.364;2023-05-22T01:41:23;94832.88;;;15.18;100.00
28626;BME280;18905;42.668;23.364;2023-05-22T01:43:49;94833.22;;;15.17;100.00
28626;BME280;18905;42.668;23.364;2023-05-22T01:46:15;94827.78;;;15.17;100.00
28626;BME280;18905;42.668;23.364;2023-05-22T01:48:40;94837.69;;;15.25;100.00
28626;BME280;18905;42.668;23.364;2023-05-22T01:51:27;94844.72;;;15.26;100.00
28626;BME280;18905;42.668;23.364;2023-05-22T01:54:42;94844.28;;;15.24;100.00
28626;BME280;18905;42.668;23.364;2023-05-22T01:56:59;94835.75;;;15.25;100.00
28626;BME280;18905;42.668;23.364;2023-05-22T01:59:35;94836.81;;;15.21;100.00
28626;BME280;18905;42.668;23.364;2023-05-22T02:02:05;94829.81;;;15.04;100.00
28626;BME280;18905;42.668;23.364;2023-05-22T02:04:37;94832.28;;;15.09;100.00
28626;BME280;18905;42.668;23.364;2023-05-22T02:07:04;94822.28;;;14.98;100.00
28626;BME280;18905;42.668;23.364;2023-05-22T02:09:31;94805.28;;;14.85;100.00
28626;BME280;18905;42.668;23.364;2023-05-22T02:11:58;94830.50;;;15.01;100.00
28626;BME280;18905;42.668;23.364;2023-05-22T02:14:24;94827.72;;;14.98;100.00
28626;BME280;18905;42.668;23.364;2023-05-22T02:16:51;94832.00;;;14.99;100.00
28626;BME280;18905;42.668;23.364;2023-05-22T02:19:16;94841.38;;;15.01;100.00
28626;BME280;18905;42.668;23.364;2023-05-22T02:21:42;94836.91;;;14.93;100.00
28626;BME280;18905;42.668;23.364;2023-05-22T02:24:08;94819.47;;;14.79;100.00
28626;BME280;18905;42.668;23.364;2023-05-22T02:26:33;94827.72;;;14.82;100.00
28626;BME280;18905;42.668;23.364;2023-05-22T02:28:59;94842.44;;;14.81;100.00
28626;BME280;18905;42.668;23.364;2023-05-22T02:31:25;94822.72;;;14.69;100.00
28626;BME280;18905;42.668;23.364;2023-05-22T02:33:50;94830.06;;;14.68;100.00
28626;BME280;18905;42.668;23.364;2023-05-22T02:36:16;94841.28;;;14.67;100.00
28626;BME280;18905;42.668;23.364;2023-05-22T02:38:41;94841.19;;;14.63;100.00
28626;BME280;18905;42.668;23.364;2023-05-22T02:41:07;94836.09;;;14.62;100.00
28626;BME280;18905;42.668;23.364;2023-05-22T02:43:32;94838.72;;;14.58;100.00
28626;BME280;18905;42.668;23.364;2023-05-22T02:45:58;94831.19;;;14.52;100.00
28626;BME280;18905;42.668;23.364;2023-05-22T02:48:23;94828.97;;;14.42;100.00
28626;BME280;18905;42.668;23.364;2023-05-22T02:50:49;94815.44;;;14.30;100.00
28626;BME280;18905;42.668;23.364;2023-05-22T02:53:14;94835.91;;;14.39;100.00
28626;BME280;18905;42.668;23.364;2023-05-22T02:55:41;94835.69;;;14.32;100.00
28626;BME280;18905;42.668;23.364;2023-05-22T02:58:07;94809.50;;;14.12;100.00
28626;BME280;18905;42.668;23.364;2023-05-22T03:00:36;94818.88;;;14.15;100.00
28626;BME280;18905;42.668;23.364;2023-05-22T03:03:03;94829.84;;;14.18;100.00
28626;BME280;18905;42.668;23.364;2023-05-22T03:05:28;94839.53;;;14.31;100.00
28626;BME280;18905;42.668;23.364;2023-05-22T03:07:53;94828.94;;;14.26;100.00
28626;BME280;18905;42.668;23.364;2023-05-22T03:10:19;94824.19;;;14.23;100.00
28626;BME280;18905;42.668;23.364;2023-05-22T03:12:44;94835.44;;;14.37;100.00
28626;BME280;18905;42.668;23.364;2023-05-22T03:15:10;94843.22;;;14.66;100.00
28626;BME280;18905;42.668;23.364;2023-05-22T03:17:35;94840.25;;;15.18;100.00
28626;BME280;18905;42.668;23.364;2023-05-22T03:20:01;94838.72;;;15.67;100.00
28626;BME280;18905;42.668;23.364;2023-05-22T03:22:27;94835.31;;;16.08;100.00
28626;BME280;18905;42.668;23.364;2023-05-22T03:24:53;94829.75;;;16.01;100.00
28626;BME280;18905;42.668;23.364;2023-05-22T03:27:18;94821.59;;;15.66;100.00
28626;BME280;18905;42.668;23.364;2023-05-22T03:29:44;94836.66;;;15.45;100.00
28626;BME280;18905;42.668;23.364;2023-05-22T03:32:09;94822.44;;;15.20;100.00
28626;BME280;18905;42.668;23.364;2023-05-22T03:34:35;94833.22;;;15.17;100.00
28626;BME280;18905;42.668;23.364;2023-05-22T03:37:00;94838.13;;;15.11;100.00
28626;BME280;18905;42.668;23.364;2023-05-22T03:39:26;94834.81;;;15.02;100.00
28626;BME280;18905;42.668;23.364;2023-05-22T03:41:51;94834.56;;;15.07;100.00
28626;BME280;18905;42.668;23.364;2023-05-22T03:44:17;94837.53;;;15.02;100.00
28626;BME280;18905;42.668;23.364;2023-05-22T03:46:42;94833.22;;;14.86;100.00
28626;BME280;18905;42.668;23.364;2023-05-22T03:49:08;94838.59;;;14.98;100.00
28626;BME280;18905;42.668;23.364;2023-05-22T03:51:33;94828.50;;;14.98;100.00
28626;BME280;18905;42.668;23.364;2023-05-22T03:53:58;94834.66;;;15.11;100.00
28626;BME280;18905;42.668;23.364;2023-05-22T03:56:24;94828.59;;;15.17;100.00
28626;BME280;18905;42.668;23.364;2023-05-22T03:58:50;94844.56;;;15.34;100.00
28626;BME280;18905;42.668;23.364;2023-05-22T04:01:16;94850.84;;;15.54;100.00
28626;BME280;18905;42.668;23.364;2023-05-22T04:03:42;94854.16;;;16.16;100.00
28626;BME280;18905;42.668;23.364;2023-05-22T04:06:07;94856.28;;;16.42;100.00
28626;BME280;18905;42.668;23.364;2023-05-22T04:08:33;94842.50;;;16.54;100.00
28626;BME280;18905;42.668;23.364;2023-05-22T04:10:58;94836.91;;;16.88;100.00
28626;BME280;18905;42.668;23.364;2023-05-22T04:13:24;94853.91;;;17.23;100.00
28626;BME280;18905;42.668;23.364;2023-05-22T04:15:51;94843.00;;;16.59;100.00
28626;BME280;18905;42.668;23.364;2023-05-22T04:18:17;94843.22;;;16.70;100.00
28626;BME280;18905;42.668;23.364;2023-05-22T04:20:43;94852.00;;;16.82;100.00
28626;BME280;18905;42.668;23.364;2023-05-22T04:23:08;94853.66;;;17.09;100.00
28626;BME280;18905;42.668;23.364;2023-05-22T04:25:34;94855.88;;;17.26;100.00
28626;BME280;18905;42.668;23.364;2023-05-22T04:28:00;94837.88;;;17.44;100.00
28626;BME280;18905;42.668;23.364;2023-05-22T04:30:29;94846.28;;;17.58;100.00
28626;BME280;18905;42.668;23.364;2023-05-22T04:32:54;94855.69;;;17.87;100.00
28626;BME280;18905;42.668;23.364;2023-05-22T04:35:21;94831.81;;;18.10;100.00
28626;BME280;18905;42.668;23.364;2023-05-22T04:37:47;94842.56;;;18.55;100.00
28626;BME280;18905;42.668;23.364;2023-05-22T04:40:12;94841.47;;;18.99;100.00
28626;BME280;18905;42.668;23.364;2023-05-22T04:42:39;94846.63;;;19.48;100.00
28626;BME280;18905;42.668;23.364;2023-05-22T04:45:07;94840.28;;;19.87;100.00
28626;BME280;18905;42.668;23.364;2023-05-22T04:47:32;94850.00;;;20.39;100.00
28626;BME280;18905;42.668;23.364;2023-05-22T04:49:58;94848.53;;;20.59;100.00
28626;BME280;18905;42.668;23.364;2023-05-22T04:52:24;94853.41;;;21.11;98.88
28626;BME280;18905;42.668;23.364;2023-05-22T04:54:50;94852.25;;;21.33;95.74
28626;BME280;18905;42.668;23.364;2023-05-22T04:57:17;94829.50;;;21.68;89.73
28626;BME280;18905;42.668;23.364;2023-05-22T04:59:43;94842.84;;;22.08;88.13
28626;BME280;18905;42.668;23.364;2023-05-22T05:02:10;94851.38;;;22.52;83.25
28626;BME280;18905;42.668;23.364;2023-05-22T05:04:35;94855.44;;;20.28;100.00
28626;BME280;18905;42.668;23.364;2023-05-22T05:07:01;94854.63;;;21.49;92.82
28626;BME280;18905;42.668;23.364;2023-05-22T05:09:28;94853.81;;;21.38;93.12
28626;BME280;18905;42.668;23.364;2023-05-22T05:11:53;94852.28;;;21.89;87.80
28626;BME280;18905;42.668;23.364;2023-05-22T05:14:19;94863.28;;;21.79;88.25
28626;BME280;18905;42.668;23.364;2023-05-22T05:16:44;94858.91;;;22.20;82.49
28626;BME280;18905;42.668;23.364;2023-05-22T05:19:11;94864.03;;;22.07;81.97
28626;BME280;18905;42.668;23.364;2023-05-22T05:21:37;94856.09;;;22.55;81.05
28626;BME280;18905;42.668;23.364;2023-05-22T05:24:04;94866.31;;;22.58;79.63
28626;BME280;18905;42.668;23.364;2023-05-22T05:26:30;94861.53;;;22.69;79.95
28626;BME280;18905;42.668;23.364;2023-05-22T05:28:55;94856.22;;;23.13;77.97
28626;BME280;18905;42.668;23.364;2023-05-22T05:31:21;94853.19;;;23.55;75.20
28626;BME280;18905;42.668;23.364;2023-05-22T05:33:47;94851.91;;;23.08;74.70
28626;BME280;18905;42.668;23.364;2023-05-22T05:36:13;94854.16;;;23.27;73.68
28626;BME280;18905;42.668;23.364;2023-05-22T05:38:39;94846.50;;;23.56;71.01
28626;BME280;18905;42.668;23.364;2023-05-22T05:41:04;94861.94;;;23.43;70.77
28626;BME280;18905;42.668;23.364;2023-05-22T05:43:30;94859.44;;;23.62;70.15
28626;BME280;18905;42.668;23.364;2023-05-22T05:45:55;94852.16;;;23.86;70.20
28626;BME280;18905;42.668;23.364;2023-05-22T05:48:21;94848.66;;;23.78;67.00
28626;BME280;18905;42.668;23.364;2023-05-22T05:50:47;94862.78;;;23.36;69.27
28626;BME280;18905;42.668;23.364;2023-05-22T05:53:12;94854.16;;;23.82;67.03
28626;BME280;18905;42.668;23.364;2023-05-22T05:55:38;94865.91;;;23.93;67.35
28626;BME280;18905;42.668;23.364;2023-05-22T05:58:03;94861.88;;;24.41;63.48
28626;BME280;18905;42.668;23.364;2023-05-22T06:00:29;94854.44;;;23.98;62.88
28626;BME280;18905;42.668;23.364;2023-05-22T06:02:54;94869.78;;;23.48;67.26
28626;BME280;18905;42.668;23.364;2023-05-22T06:05:21;94867.34;;;24.08;63.07
28626;BME280;18905;42.668;23.364;2023-05-22T06:07:47;94865.88;;;24.74;58.23
28626;BME280;18905;42.668;23.364;2023-05-22T06:10:13;94868.16;;;24.45;59.33
28626;BME280;18905;42.668;23.364;2023-05-22T06:12:38;94862.53;;;24.19;60.13
28626;BME280;18905;42.668;23.364;2023-05-22T06:15:05;94865.34;;;24.12;59.30
28626;BME280;18905;42.668;23.364;2023-05-22T06:17:32;94854.41;;;23.54;61.37
28626;BME280;18905;42.668;23.364;2023-05-22T06:19:57;94866.03;;;23.75;62.28
28626;BME280;18905;42.668;23.364;2023-05-22T06:22:24;94864.19;;;22.86;62.79
28626;BME280;18905;42.668;23.364;2023-05-22T06:24:52;94869.41;;;22.70;64.90
28626;BME280;18905;42.668;23.364;2023-05-22T06:27:19;94865.44;;;23.50;61.64
28626;BME280;18905;42.668;23.364;2023-05-22T06:29:49;94857.44;;;23.66;60.17
28626;BME280;18905;42.668;23.364;2023-05-22T06:32:16;94862.59;;;23.61;62.46
28626;BME280;18905;42.668;23.364;2023-05-22T06:34:42;94860.97;;;23.67;60.81
28626;BME280;18905;42.668;23.364;2023-05-22T06:37:09;94861.75;;;23.67;65.57
28626;BME280;18905;42.668;23.364;2023-05-22T06:39:34;94846.03;;;23.68;57.94
28626;BME280;18905;42.668;23.364;2023-05-22T06:42:00;94864.19;;;22.93;59.83
28626;BME280;18905;42.668;23.364;2023-05-22T06:44:25;94856.72;;;23.55;59.22
28626;BME280;18905;42.668;23.364;2023-05-22T06:46:52;94860.78;;;24.35;55.83
28626;BME280;18905;42.668;23.364;2023-05-22T06:49:18;94865.47;;;22.68;63.08
28626;BME280;18905;42.668;23.364;2023-05-22T06:51:44;94857.69;;;22.38;63.41
28626;BME280;18905;42.668;23.364;2023-05-22T06:54:10;94866.53;;;22.95;59.01
28626;BME280;18905;42.668;23.364;2023-05-22T06:56:38;94856.97;;;22.17;62.48
28626;BME280;18905;42.668;23.364;2023-05-22T06:59:03;94868.38;;;21.63;67.63
28626;BME280;18905;42.668;23.364;2023-05-22T07:01:29;94862.06;;;21.38;69.34
28626;BME280;18905;42.668;23.364;2023-05-22T07:03:56;94871.66;;;20.68;74.11
28626;BME280;18905;42.668;23.364;2023-05-22T07:06:22;94855.41;;;21.53;72.30
28626;BME280;18905;42.668;23.364;2023-05-22T07:08:49;94871.53;;;21.75;67.81
28626;BME280;18905;42.668;23.364;2023-05-22T07:11:14;94864.84;;;21.55;68.17
28626;BME280;18905;42.668;23.364;2023-05-22T07:13:40;94865.59;;;21.38;69.53
28626;BME280;18905;42.668;23.364;2023-05-22T07:16:06;94864.50;;;20.43;77.21
28626;BME280;18905;42.668;23.364;2023-05-22T07:18:31;94860.22;;;20.45;76.93
28626;BME280;18905;42.668;23.364;2023-05-22T07:20:57;94856.72;;;20.55;75.20
28626;BME280;18905;42.668;23.364;2023-05-22T07:23:23;94861.06;;;20.60;75.09
28626;BME280;18905;42.668;23.364;2023-05-22T07:25:48;94855.44;;;20.28;75.65
28626;BME280;18905;42.668;23.364;2023-05-22T07:28:13;94842.47;;;20.22;76.12
28626;BME280;18905;42.668;23.364;2023-05-22T07:30:39;94862.63;;;20.64;74.62
28626;BME280;18905;42.668;23.364;2023-05-22T07:33:05;94869.34;;;20.70;73.83
28626;BME280;18905;42.668;23.364;2023-05-22T07:35:30;94840.31;;;20.69;74.37
28626;BME280;18905;42.668;23.364;2023-05-22T07:37:56;94861.00;;;20.49;76.40
28626;BME280;18905;42.668;23.364;2023-05-22T07:40:22;94866.06;;;20.44;77.63
28626;BME280;18905;42.668;23.364;2023-05-22T07:42:47;94829.81;;;20.07;77.50
28626;BME280;18905;42.668;23.364;2023-05-22T07:45:13;94854.03;;;20.66;77.50
28626;BME280;18905;42.668;23.364;2023-05-22T07:47:38;94840.63;;;20.50;78.34
28626;BME280;18905;42.668;23.364;2023-05-22T07:50:04;94852.06;;;20.63;78.59
28626;BME280;18905;42.668;23.364;2023-05-22T07:52:30;94846.59;;;20.73;76.93
28626;BME280;18905;42.668;23.364;2023-05-22T07:54:59;94854.63;;;21.35;75.83
28626;BME280;18905;42.668;23.364;2023-05-22T07:57:25;94856.53;;;22.18;71.14
28626;BME280;18905;42.668;23.364;2023-05-22T07:59:50;94864.44;;;21.92;66.41
28626;BME280;18905;42.668;23.364;2023-05-22T08:02:16;94849.75;;;22.72;62.41
28626;BME280;18905;42.668;23.364;2023-05-22T08:04:42;94851.00;;;22.50;62.83
28626;BME280;18905;42.668;23.364;2023-05-22T08:07:08;94852.16;;;22.56;61.89
28626;BME280;18905;42.668;23.364;2023-05-22T08:09:34;94837.03;;;22.99;62.02
28626;BME280;18905;42.668;23.364;2023-05-22T08:12:00;94845.69;;;22.94;62.99
28626;BME280;18905;42.668;23.364;2023-05-22T08:14:25;94844.31;;;22.51;57.09
28626;BME280;18905;42.668;23.364;2023-05-22T08:16:51;94858.47;;;22.46;60.68
28626;BME280;18905;42.668;23.364;2023-05-22T08:19:16;94846.09;;;22.89;58.06
28626;BME280;18905;42.668;23.364;2023-05-22T08:21:42;94841.47;;;23.44;59.20
28626;BME280;18905;42.668;23.364;2023-05-22T08:24:07;94817.78;;;22.92;57.43
28626;BME280;18905;42.668;23.364;2023-05-22T08:26:33;94849.06;;;22.22;56.09
28626;BME280;18905;42.668;23.364;2023-05-22T08:28:59;94849.38;;;22.63;57.23
28626;BME280;18905;42.668;23.364;2023-05-22T08:31:25;94837.78;;;21.89;61.11
28626;BME280;18905;42.668;23.364;2023-05-22T08:33:51;94839.59;;;22.48;58.88
28626;BME280;18905;42.668;23.364;2023-05-22T08:36:17;94834.59;;;23.04;57.66
28626;BME280;18905;42.668;23.364;2023-05-22T08:38:42;94842.34;;;22.51;57.76
28626;BME280;18905;42.668;23.364;2023-05-22T08:41:09;94828.78;;;22.92;57.28
28626;BME280;18905;42.668;23.364;2023-05-22T08:43:35;94837.88;;;22.82;50.33
28626;BME280;18905;42.668;23.364;2023-05-22T08:46:04;94831.44;;;23.09;48.41
28626;BME280;18905;42.668;23.364;2023-05-22T08:48:31;94837.56;;;23.92;46.54
28626;BME280;18905;42.668;23.364;2023-05-22T08:51:01;94839.09;;;24.34;46.87
28626;BME280;18905;42.668;23.364;2023-05-22T08:53:27;94839.22;;;24.57;43.32
28626;BME280;18905;42.668;23.364;2023-05-22T08:55:53;94844.47;;;24.48;43.87
28626;BME280;18905;42.668;23.364;2023-05-22T08:58:19;94839.59;;;24.62;43.58
28626;BME280;18905;42.668;23.364;2023-05-22T09:00:46;94838.50;;;23.14;46.16
28626;BME280;18905;42.668;23.364;2023-05-22T09:03:12;94822.44;;;24.07;44.97
28626;BME280;18905;42.668;23.364;2023-05-22T09:05:39;94828.31;;;23.62;45.19
28626;BME280;18905;42.668;23.364;2023-05-22T09:08:06;94801.41;;;22.64;47.43
28626;BME280;18905;42.668;23.364;2023-05-22T09:10:34;94845.09;;;22.48;48.55
28626;BME280;18905;42.668;23.364;2023-05-22T09:15:29;94831.75;;;23.18;45.97
28626;BME280;18905;42.668;23.364;2023-05-22T09:17:55;94827.78;;;23.30;46.07
28626;BME280;18905;42.668;23.364;2023-05-22T09:20:20;94833.78;;;23.11;47.17
28626;BME280;18905;42.668;23.364;2023-05-22T09:22:46;94816.59;;;22.89;47.43
28626;BME280;18905;42.668;23.364;2023-05-22T09:25:17;94821.16;;;22.27;49.59
28626;BME280;18905;42.668;23.364;2023-05-22T09:27:49;94836.16;;;22.02;50.51
28626;BME280;18905;42.668;23.364;2023-05-22T09:30:15;94829.50;;;21.61;52.23
28626;BME280;18905;42.668;23.364;2023-05-22T09:32:41;94812.63;;;21.45;52.28
28626;BME280;18905;42.668;23.364;2023-05-22T09:35:07;94835.78;;;21.44;52.17
28626;BME280;18905;42.668;23.364;2023-05-22T09:37:33;94821.28;;;21.82;52.92
28626;BME280;18905;42.668;23.364;2023-05-22T09:40:03;94821.66;;;21.84;51.85
28626;BME280;18905;42.668;23.364;2023-05-22T09:42:32;94830.69;;;21.84;52.86
28626;BME280;18905;42.668;23.364;2023-05-22T09:45:02;94821.25;;;21.26;52.39
28626;BME280;18905;42.668;23.364;2023-05-22T09:47:28;94828.69;;;21.29;51.44
28626;BME280;18905;42.668;23.364;2023-05-22T09:49:56;94831.47;;;21.43;50.89
28626;BME280;18905;42.668;23.364;2023-05-22T09:52:23;94838.91;;;21.35;51.89
28626;BME280;18905;42.668;23.364;2023-05-22T09:54:52;94821.28;;;21.36;55.07
28626;BME280;18905;42.668;23.364;2023-05-22T09:57:20;94842.41;;;21.15;63.27
28626;BME280;18905;42.668;23.364;2023-05-22T09:59:51;94836.50;;;21.02;68.55
28626;BME280;18905;42.668;23.364;2023-05-22T10:02:20;94834.09;;;20.83;68.47
28626;BME280;18905;42.668;23.364;2023-05-22T10:04:47;94826.16;;;20.57;71.25
28626;BME280;18905;42.668;23.364;2023-05-22T10:07:15;94808.09;;;20.45;71.90
28626;BME280;18905;42.668;23.364;2023-05-22T10:09:43;94819.66;;;21.00;70.08
28626;BME280;18905;42.668;23.364;2023-05-22T10:12:12;94830.22;;;20.98;71.42
28626;BME280;18905;42.668;23.364;2023-05-22T10:14:41;94825.91;;;21.01;71.02
28626;BME280;18905;42.668;23.364;2023-05-22T10:17:06;94814.00;;;20.47;72.08
28626;BME280;18905;42.668;23.364;2023-05-22T10:19:34;94819.91;;;20.56;74.53
28626;BME280;18905;42.668;23.364;2023-05-22T10:22:01;94830.13;;;20.63;77.60
28626;BME280;18905;42.668;23.364;2023-05-22T10:24:28;94826.16;;;20.50;80.44
28626;BME280;18905;42.668;23.364;2023-05-22T10:26:53;94821.38;;;20.33;90.04
28626;BME280;18905;42.668;23.364;2023-05-22T10:29:34;94820.72;;;20.71;87.47
28626;BME280;18905;42.668;23.364;2023-05-22T10:35:18;94864.13;;;19.83;91.96
28626;BME280;18905;42.668;23.364;2023-05-22T10:37:51;94865.97;;;18.52;100.00
28626;BME280;18905;42.668;23.364;2023-05-22T10:40:21;94881.97;;;18.50;100.00
28626;BME280;18905;42.668;23.364;2023-05-22T10:42:56;94871.72;;;19.13;100.00
28626;BME280;18905;42.668;23.364;2023-05-22T10:45:24;94846.31;;;19.53;100.00
28626;BME280;18905;42.668;23.364;2023-05-22T10:48:09;94869.72;;;19.97;100.00
28626;BME280;18905;42.668;23.364;2023-05-22T10:50:37;94861.13;;;20.02;100.00
28626;BME280;18905;42.668;23.364;2023-05-22T10:53:24;94857.75;;;20.26;100.00
28626;BME280;18905;42.668;23.364;2023-05-22T10:55:52;94845.63;;;20.27;100.00
28626;BME280;18905;42.668;23.364;2023-05-22T10:58:24;94843.69;;;20.35;100.00
28626;BME280;18905;42.668;23.364;2023-05-22T11:01:18;94838.09;;;21.00;100.00
28626;BME280;18905;42.668;23.364;2023-05-22T11:06:43;94834.75;;;20.48;100.00
28626;BME280;18905;42.668;23.364;2023-05-22T11:09:30;94838.94;;;21.39;100.00
28626;BME280;18905;42.668;23.364;2023-05-22T11:14:51;94805.56;;;21.86;100.00
28626;BME280;18905;42.668;23.364;2023-05-22T11:17:31;94809.09;;;21.51;100.00
28626;BME280;18905;42.668;23.364;2023-05-22T11:20:00;94835.78;;;21.30;100.00
28626;BME280;18905;42.668;23.364;2023-05-22T11:22:41;94852.78;;;20.46;100.00
28626;BME280;18905;42.668;23.364;2023-05-22T11:25:09;94856.75;;;20.59;100.00
28626;BME280;18905;42.668;23.364;2023-05-22T11:27:36;94873.34;;;19.61;100.00
28626;BME280;18905;42.668;23.364;2023-05-22T11:30:03;94856.19;;;18.84;100.00
28626;BME280;18905;42.668;23.364;2023-05-22T11:32:29;94870.41;;;18.64;100.00
28626;BME280;18905;42.668;23.364;2023-05-22T11:34:57;94870.16;;;18.43;100.00
28626;BME280;18905;42.668;23.364;2023-05-22T11:37:23;94871.41;;;18.49;100.00
28626;BME280;18905;42.668;23.364;2023-05-22T11:39:56;94862.50;;;18.55;100.00
28626;BME280;18905;42.668;23.364;2023-05-22T11:42:22;94883.34;;;18.67;100.00
28626;BME280;18905;42.668;23.364;2023-05-22T11:44:48;94891.25;;;18.75;100.00
28626;BME280;18905;42.668;23.364;2023-05-22T11:47:13;94891.28;;;18.46;100.00
28626;BME280;18905;42.668;23.364;2023-05-22T11:49:40;94888.09;;;18.14;100.00
28626;BME280;18905;42.668;23.364;2023-05-22T11:52:06;94883.19;;;18.27;100.00
28626;BME280;18905;42.668;23.364;2023-05-22T11:54:32;94887.34;;;18.43;100.00
28626;BME280;18905;42.668;23.364;2023-05-22T11:56:57;94885.66;;;18.35;100.00
28626;BME280;18905;42.668;23.364;2023-05-22T11:59:23;94877.38;;;18.28;100.00
28626;BME280;18905;42.668;23.364;2023-05-22T12:01:49;94887.50;;;18.28;100.00
28626;BME280;18905;42.668;23.364;2023-05-22T12:04:14;94895.22;;;18.22;100.00
28626;BME280;18905;42.668;23.364;2023-05-22T12:06:41;94888.22;;;17.69;100.00
28626;BME280;18905;42.668;23.364;2023-05-22T12:09:06;94890.28;;;17.76;100.00
28626;BME280;18905;42.668;23.364;2023-05-22T12:11:35;94891.88;;;17.80;100.00
28626;BME280;18905;42.668;23.364;2023-05-22T12:14:04;94891.31;;;17.68;100.00
28626;BME280;18905;42.668;23.364;2023-05-22T12:16:34;94892.06;;;17.42;100.00
28626;BME280;18905;42.668;23.364;2023-05-22T12:19:07;94880.28;;;17.61;100.00
28626;BME280;18905;42.668;23.364;2023-05-22T12:21:33;94877.38;;;17.76;100.00
28626;BME280;18905;42.668;23.364;2023-05-22T12:24:04;94876.03;;;17.89;100.00
28626;BME280;18905;42.668;23.364;2023-05-22T12:26:30;94870.56;;;17.89;100.00
28626;BME280;18905;42.668;23.364;2023-05-22T12:28:59;94849.47;;;17.86;100.00
28626;BME280;18905;42.668;23.364;2023-05-22T12:31:25;94861.31;;;17.97;100.00
28626;BME280;18905;42.668;23.364;2023-05-22T12:33:55;94881.75;;;18.07;100.00
28626;BME280;18905;42.668;23.364;2023-05-22T12:36:30;94848.47;;;18.27;100.00
28626;BME280;18905;42.668;23.364;2023-05-22T12:38:56;94839.50;;;18.60;100.00
28626;BME280;18905;42.668;23.364;2023-05-22T12:41:21;94871.63;;;19.03;100.00
28626;BME280;18905;42.668;23.364;2023-05-22T12:43:47;94858.84;;;19.17;100.00
28626;BME280;18905;42.668;23.364;2023-05-22T12:46:13;94855.09;;;19.29;100.00
28626;BME280;18905;42.668;23.364;2023-05-22T12:48:38;94849.94;;;19.24;100.00
28626;BME280;18905;42.668;23.364;2023-05-22T12:51:03;94862.28;;;19.07;100.00
28626;BME280;18905;42.668;23.364;2023-05-22T12:53:29;94850.13;;;19.01;100.00
28626;BME280;18905;42.668;23.364;2023-05-22T12:55:55;94866.09;;;19.32;100.00
28626;BME280;18905;42.668;23.364;2023-05-22T12:58:20;94871.66;;;19.06;100.00
28626;BME280;18905;42.668;23.364;2023-05-22T13:00:45;94857.41;;;18.90;100.00
28626;BME280;18905;42.668;23.364;2023-05-22T13:03:11;94865.34;;;18.66;100.00
28626;BME280;18905;42.668;23.364;2023-05-22T13:05:36;94863.88;;;18.72;100.00